createdAt,value
2017-11-21T00:00:11.709Z,2.37
2017-11-21T00:02:39.141Z,3.12
2017-11-21T00:05:06.570Z,1.75
2017-11-21T00:07:34.005Z,4.82
2017-11-21T00:10:01.434Z,2.10
2017-11-21T00:12:28.877Z,2.10
2017-11-21T00:14:56.305Z,1.90
2017-11-21T00:17:23.730Z,2.37
2017-11-21T00:19:51.160Z,2.60
2017-11-21T00:22:31.243Z,2.30
2017-11-21T00:24:58.660Z,3.58
2017-11-21T00:27:26.854Z,2.45
2017-11-21T00:29:54.284Z,2.70
2017-11-21T00:32:21.713Z,2.30
2017-11-21T00:34:49.161Z,2.20
2017-11-21T00:37:16.605Z,2.47
2017-11-21T00:39:44.045Z,2.17
2017-11-21T00:42:11.514Z,2.47
2017-11-21T00:44:38.933Z,2.30
2017-11-21T00:47:07.117Z,2.83
2017-11-21T00:49:34.564Z,1.98
2017-11-21T00:52:01.985Z,2.35
2017-11-21T00:54:29.411Z,2.15
2017-11-21T00:56:56.849Z,2.35
2017-11-21T00:59:24.337Z,2.35
2017-11-21T01:01:51.753Z,2.25
2017-11-21T01:04:20.277Z,2.50
2017-11-21T01:06:47.708Z,1.87
2017-11-21T01:09:15.134Z,2.37
2017-11-21T01:11:42.552Z,2.53
2017-11-21T01:14:09.981Z,2.67
2017-11-21T01:16:37.417Z,2.50
2017-11-21T01:19:04.845Z,2.30
2017-11-21T01:21:32.294Z,2.70
2017-11-21T01:23:59.720Z,2.93
2017-11-21T01:26:27.142Z,2.80
2017-11-21T01:28:54.576Z,2.75
2017-11-21T01:31:22.001Z,2.40
2017-11-21T01:33:49.644Z,2.47
2017-11-21T01:36:17.037Z,2.57
2017-11-21T01:38:44.481Z,2.72
2017-11-21T01:41:11.906Z,2.85
2017-11-21T01:43:39.332Z,2.50
2017-11-21T01:46:06.915Z,3.22
2017-11-21T01:48:34.340Z,2.93
2017-11-21T01:51:02.529Z,2.83
2017-11-21T01:53:29.987Z,2.85
2017-11-21T01:55:57.404Z,2.87
2017-11-21T01:58:24.826Z,3.10
2017-11-21T02:00:52.264Z,3.53
2017-11-21T02:03:19.734Z,2.80
2017-11-21T02:05:47.165Z,3.07
2017-11-21T02:08:14.584Z,2.80
2017-11-21T02:10:42.011Z,2.80
2017-11-21T02:13:09.433Z,3.17
2017-11-21T02:15:36.873Z,3.13
2017-11-21T02:18:05.074Z,3.13
2017-11-21T02:20:32.489Z,3.20
2017-11-21T02:23:00.716Z,3.12
2017-11-21T02:25:28.371Z,2.83
2017-11-21T02:27:55.794Z,2.80
2017-11-21T02:30:23.981Z,2.43
2017-11-21T02:32:51.413Z,2.83
2017-11-21T02:35:18.821Z,2.83
2017-11-21T02:37:46.279Z,2.83
2017-11-21T02:40:13.697Z,2.87
2017-11-21T02:42:41.890Z,2.57
2017-11-21T02:45:09.319Z,2.93
2017-11-21T02:47:36.751Z,4.13
2017-11-21T02:50:04.174Z,2.83
2017-11-21T02:52:31.619Z,3.00
2017-11-21T02:54:59.028Z,2.97
2017-11-21T02:57:27.215Z,3.23
2017-11-21T02:59:54.636Z,2.80
2017-11-21T03:02:23.764Z,2.90
2017-11-21T03:04:51.180Z,2.50
2017-11-21T03:07:18.600Z,2.80
2017-11-21T03:09:46.065Z,3.50
2017-11-21T03:12:13.485Z,4.73
2017-11-21T03:14:41.189Z,3.00
2017-11-21T03:17:08.592Z,4.53
2017-11-21T03:19:36.025Z,3.40
2017-11-21T03:22:15.273Z,3.00
2017-11-21T03:24:54.396Z,3.33
2017-11-21T03:27:35.435Z,2.77
2017-11-21T03:30:02.874Z,3.40
2017-11-21T03:32:30.281Z,2.90
2017-11-21T03:34:57.697Z,3.13
2017-11-21T03:37:25.141Z,3.37
2017-11-21T03:39:52.552Z,3.37
2017-11-21T03:42:19.981Z,2.90
2017-11-21T03:44:47.403Z,2.67
2017-11-21T03:47:14.830Z,3.30
2017-11-21T03:49:42.250Z,2.80
2017-11-21T03:52:10.449Z,3.47
2017-11-21T03:54:37.861Z,3.70
2017-11-21T03:57:05.293Z,2.93
2017-11-21T03:59:32.713Z,2.60
2017-11-21T04:02:00.149Z,3.43
2017-11-21T04:04:27.569Z,4.90
2017-11-21T04:06:54.985Z,7.20
2017-11-21T04:09:22.412Z,3.97
2017-11-21T04:11:49.833Z,3.33
2017-11-21T04:14:17.259Z,3.37
2017-11-21T04:16:44.669Z,5.10
2017-11-21T04:19:12.097Z,6.23
2017-11-21T04:21:39.512Z,6.30
2017-11-21T04:24:06.946Z,5.77
2017-11-21T04:26:34.364Z,4.75
2017-11-21T04:29:01.792Z,4.60
2017-11-21T04:31:29.209Z,3.03
2017-11-21T04:33:56.652Z,3.15
2017-11-21T04:36:24.072Z,3.80
2017-11-21T04:38:52.277Z,3.07
2017-11-21T04:41:19.697Z,2.87
2017-11-21T04:43:47.115Z,3.10
2017-11-21T04:46:14.548Z,3.63
2017-11-21T04:48:42.517Z,3.03
2017-11-21T04:51:09.941Z,3.17
2017-11-21T04:53:38.121Z,3.00
2017-11-21T04:56:05.553Z,3.00
2017-11-21T04:58:33.737Z,3.20
2017-11-21T05:01:01.164Z,3.50
2017-11-21T05:03:28.589Z,2.40
2017-11-21T05:05:56.021Z,2.97
2017-11-21T05:08:23.445Z,2.40
2017-11-21T05:10:50.875Z,3.03
2017-11-21T05:13:18.288Z,2.40
2017-11-21T05:15:45.718Z,2.25
2017-11-21T05:18:13.133Z,2.43
2017-11-21T05:20:40.549Z,2.47
2017-11-21T05:23:07.977Z,2.50
2017-11-21T05:25:36.175Z,2.70
2017-11-21T05:28:03.605Z,2.40
2017-11-21T05:30:31.023Z,2.40
2017-11-21T05:33:10.337Z,2.10
2017-11-21T05:35:37.756Z,2.40
2017-11-21T05:38:05.951Z,2.13
2017-11-21T05:40:33.368Z,2.20
2017-11-21T05:43:00.816Z,2.50
2017-11-21T05:45:28.237Z,1.73
2017-11-21T05:47:55.658Z,2.07
2017-11-21T05:50:23.087Z,2.50
2017-11-21T05:52:50.503Z,1.90
2017-11-21T05:55:17.929Z,2.50
2017-11-21T05:57:45.381Z,2.80
2017-11-21T06:00:13.573Z,2.10
2017-11-21T06:02:40.997Z,2.40
2017-11-21T06:05:08.549Z,2.40
2017-11-21T06:07:35.969Z,3.00
2017-11-21T06:10:03.389Z,2.10
2017-11-21T06:12:31.586Z,1.90
2017-11-21T06:14:59.001Z,1.70
2017-11-21T06:17:26.425Z,2.03
2017-11-21T06:19:53.849Z,2.10
2017-11-21T06:22:21.272Z,2.00
2017-11-21T06:24:49.460Z,5.33
2017-11-21T06:27:17.428Z,2.30
2017-11-21T06:29:45.609Z,1.70
2017-11-21T06:32:13.040Z,2.03
2017-11-21T06:34:40.469Z,2.20
2017-11-21T06:37:07.913Z,1.60
2017-11-21T06:39:35.332Z,1.80
2017-11-21T06:42:02.744Z,2.33
2017-11-21T06:44:30.175Z,1.77
2017-11-21T06:46:57.592Z,2.20
2017-11-21T06:49:25.019Z,2.10
2017-11-21T06:51:52.443Z,2.50
2017-11-21T06:54:19.873Z,2.50
2017-11-21T06:56:47.288Z,2.70
2017-11-21T06:59:14.718Z,1.77
2017-11-21T07:01:42.133Z,2.20
2017-11-21T07:04:09.556Z,1.87
2017-11-21T07:06:36.977Z,2.00
2017-11-21T07:09:04.413Z,1.80
2017-11-21T07:11:31.824Z,1.90
2017-11-21T07:13:59.240Z,1.90
2017-11-21T07:16:26.671Z,1.50
2017-11-21T07:18:54.094Z,1.50
2017-11-21T07:21:21.521Z,1.80
2017-11-21T07:23:48.945Z,1.97
2017-11-21T07:26:16.364Z,1.50
2017-11-21T07:28:44.553Z,1.50
2017-11-21T07:31:11.998Z,1.67
2017-11-21T07:33:39.409Z,1.90
2017-11-21T07:36:06.829Z,1.50
2017-11-21T07:38:34.260Z,2.80
2017-11-21T07:41:02.453Z,3.43
2017-11-21T07:43:29.881Z,4.40
2017-11-21T07:45:57.301Z,4.47
2017-11-21T07:48:24.748Z,3.90
2017-11-21T07:50:52.155Z,2.40
2017-11-21T07:53:20.353Z,2.00
2017-11-21T07:55:47.770Z,3.00
2017-11-21T07:58:15.196Z,1.80
2017-11-21T08:00:42.618Z,2.13
2017-11-21T08:03:10.065Z,1.40
2017-11-21T08:05:38.245Z,1.40
2017-11-21T08:08:05.933Z,1.50
2017-11-21T08:10:33.337Z,1.80
2017-11-21T08:13:01.520Z,1.93
2017-11-21T08:15:29.713Z,1.30
2017-11-21T08:17:57.125Z,1.57
2017-11-21T08:20:24.553Z,1.93
2017-11-21T08:22:51.965Z,1.60
2017-11-21T08:25:19.399Z,1.60
2017-11-21T08:27:46.813Z,1.70
2017-11-21T08:30:14.262Z,1.40
2017-11-21T08:32:41.677Z,1.70
2017-11-21T08:35:09.859Z,1.50
2017-11-21T08:37:37.282Z,2.37
2017-11-21T08:40:04.701Z,1.60
2017-11-21T08:42:32.128Z,1.80
2017-11-21T08:45:00.309Z,1.60
2017-11-21T08:47:27.747Z,2.67
2017-11-21T08:49:55.153Z,1.50
2017-11-21T08:52:22.583Z,2.03
2017-11-21T08:54:50.000Z,1.87
2017-11-21T08:57:17.430Z,1.63
2017-11-21T08:59:44.848Z,1.87
2017-11-21T09:02:12.273Z,1.90
2017-11-21T09:04:39.689Z,1.80
2017-11-21T09:07:07.134Z,2.03
2017-11-21T09:09:34.549Z,1.97
2017-11-21T09:12:01.962Z,2.00
2017-11-21T09:14:29.402Z,1.83
2017-11-21T09:16:56.804Z,1.73
2017-11-21T09:19:24.233Z,1.93
2017-11-21T09:21:51.648Z,2.10
2017-11-21T09:24:19.097Z,2.10
2017-11-21T09:26:46.513Z,1.73
2017-11-21T09:29:13.937Z,1.70
2017-11-21T09:31:41.358Z,1.60
2017-11-21T09:34:08.804Z,2.17
2017-11-21T09:36:36.218Z,1.90
2017-11-21T09:39:03.633Z,2.87
2017-11-21T09:41:31.061Z,2.90
2017-11-21T09:43:59.533Z,1.90
2017-11-21T09:46:26.956Z,1.80
2017-11-21T09:48:54.389Z,1.97
2017-11-21T09:51:21.833Z,1.80
2017-11-21T09:53:50.009Z,2.00
2017-11-21T09:56:17.437Z,2.30
2017-11-21T09:58:44.853Z,1.73
2017-11-21T10:01:12.300Z,1.93
2017-11-21T10:03:39.721Z,1.90
2017-11-21T10:06:07.905Z,2.10
2017-11-21T10:08:35.333Z,1.60
2017-11-21T10:11:02.744Z,1.87
2017-11-21T10:13:30.174Z,2.00
2017-11-21T10:15:57.593Z,1.97
2017-11-21T10:18:25.034Z,2.00
2017-11-21T10:20:52.844Z,2.23
2017-11-21T10:23:20.272Z,2.27
2017-11-21T10:25:47.688Z,2.73
2017-11-21T10:28:15.141Z,2.50
2017-11-21T10:30:42.561Z,2.70
2017-11-21T10:33:09.986Z,1.83
2017-11-21T10:35:37.420Z,2.40
2017-11-21T10:38:04.845Z,2.00
2017-11-21T10:40:32.274Z,2.77
2017-11-21T10:43:00.457Z,2.63
2017-11-21T10:45:27.890Z,2.23
2017-11-21T10:47:55.317Z,2.53
2017-11-21T10:50:22.750Z,2.10
2017-11-21T10:52:50.173Z,2.43
2017-11-21T10:55:18.385Z,2.93
2017-11-21T10:57:45.822Z,3.80
2017-11-21T11:00:13.239Z,2.73
2017-11-21T11:02:40.676Z,3.10
2017-11-21T11:05:08.102Z,3.87
2017-11-21T11:07:35.537Z,4.97
2017-11-21T11:10:02.953Z,4.20
2017-11-21T11:12:30.389Z,5.20
2017-11-21T11:14:57.813Z,4.70
2017-11-21T11:17:26.009Z,4.80
2017-11-21T11:19:53.462Z,5.57
2017-11-21T11:22:20.881Z,5.30
2017-11-21T11:24:48.305Z,5.50
2017-11-21T11:27:15.760Z,5.20
2017-11-21T11:29:43.179Z,5.83
2017-11-21T11:32:10.597Z,4.67
2017-11-21T11:34:38.793Z,5.00
2017-11-21T11:37:06.222Z,6.30
2017-11-21T11:39:33.654Z,5.57
2017-11-21T11:42:01.382Z,5.53
2017-11-21T11:44:28.813Z,5.57
2017-11-21T11:46:56.235Z,5.17
2017-11-21T11:49:23.755Z,5.03
2017-11-21T11:51:51.154Z,5.07
2017-11-21T11:54:18.589Z,4.37
2017-11-21T11:56:46.125Z,4.50
2017-11-21T11:59:13.545Z,5.17
2017-11-21T12:01:41.733Z,5.23
2017-11-21T12:04:09.153Z,4.40
2017-11-21T12:06:36.590Z,4.40
2017-11-21T12:09:04.014Z,4.07
2017-11-21T12:11:31.441Z,3.77
2017-11-21T12:13:59.628Z,4.40
2017-11-21T12:16:27.069Z,4.00
2017-11-21T12:18:54.506Z,4.00
2017-11-21T12:21:21.929Z,4.50
2017-11-21T12:23:49.349Z,4.40
2017-11-21T12:26:16.786Z,3.80
2017-11-21T12:28:44.968Z,4.33
2017-11-21T12:31:12.401Z,4.87
2017-11-21T12:33:39.830Z,4.87
2017-11-21T12:36:07.267Z,4.20
2017-11-21T12:38:34.688Z,3.80
2017-11-21T12:41:02.896Z,4.27
2017-11-21T12:43:30.316Z,4.77
2017-11-21T12:45:57.743Z,4.20
2017-11-21T12:48:25.179Z,3.83
2017-11-21T12:50:52.597Z,3.47
2017-11-21T12:53:20.028Z,4.30
2017-11-21T12:55:48.212Z,4.50
2017-11-21T12:58:15.648Z,4.20
2017-11-21T13:00:43.064Z,3.90
2017-11-21T13:03:10.497Z,7.77
2017-11-21T13:05:37.921Z,5.37
2017-11-21T13:08:05.367Z,5.47
2017-11-21T13:10:32.809Z,4.83
2017-11-21T13:13:00.341Z,5.57
2017-11-21T13:15:27.752Z,5.50
2017-11-21T13:17:55.952Z,5.30
2017-11-21T13:20:23.380Z,6.27
2017-11-21T13:22:51.573Z,5.47
2017-11-21T13:25:18.998Z,5.53
2017-11-21T13:27:46.421Z,7.30
2017-11-21T13:30:14.071Z,7.27
2017-11-21T13:32:41.476Z,6.50
2017-11-21T13:35:09.673Z,7.40
2017-11-21T13:37:37.092Z,8.33
2017-11-21T13:40:04.535Z,6.93
2017-11-21T13:42:31.956Z,7.43
2017-11-21T13:44:59.384Z,6.20
2017-11-21T13:47:27.577Z,7.30
2017-11-21T13:49:55.030Z,7.20
2017-11-21T13:52:22.452Z,8.07
2017-11-21T13:54:50.169Z,7.63
2017-11-21T13:57:17.584Z,6.90
2017-11-21T13:59:45.766Z,7.40
2017-11-21T14:02:13.956Z,8.23
2017-11-21T14:04:41.368Z,8.33
2017-11-21T14:07:08.807Z,10.10
2017-11-21T14:09:37.737Z,14.70
2017-11-21T14:12:05.934Z,11.53
2017-11-21T14:14:33.362Z,9.47
2017-11-21T14:17:00.797Z,15.27
2017-11-21T14:19:28.216Z,14.77
2017-11-21T14:21:55.673Z,9.57
2017-11-21T14:24:23.298Z,9.90
2017-11-21T14:26:50.753Z,6.80
2017-11-21T14:29:18.945Z,14.53
2017-11-21T14:31:46.371Z,9.33
2017-11-21T14:34:13.797Z,7.80
2017-11-21T14:36:41.234Z,12.47
2017-11-21T14:39:08.666Z,7.73
2017-11-21T14:41:36.104Z,7.60
2017-11-21T14:44:03.555Z,22.60
2017-11-21T14:46:30.994Z,19.07
2017-11-21T14:48:58.440Z,8.83
2017-11-21T14:51:25.870Z,8.77
2017-11-21T14:53:53.353Z,12.53
2017-11-21T14:56:20.777Z,8.80
2017-11-21T14:58:48.205Z,8.23
2017-11-21T15:01:15.640Z,8.37
2017-11-21T15:03:43.074Z,7.73
2017-11-21T15:06:10.520Z,10.93
2017-11-21T15:08:37.954Z,9.03
2017-11-21T15:11:05.400Z,8.07
2017-11-21T15:13:33.590Z,8.70
2017-11-21T15:16:01.018Z,8.47
2017-11-21T15:18:28.469Z,7.40
2017-11-21T15:20:55.902Z,8.37
2017-11-21T15:23:23.359Z,8.77
2017-11-21T15:25:50.773Z,8.80
2017-11-21T15:28:18.206Z,8.30
2017-11-21T15:30:46.402Z,7.60
2017-11-21T15:33:13.849Z,8.63
2017-11-21T15:35:41.289Z,9.20
2017-11-21T15:38:08.730Z,8.77
2017-11-21T15:40:36.170Z,8.60
2017-11-21T15:43:03.628Z,8.07
2017-11-21T15:45:31.046Z,9.23
2017-11-21T15:47:58.481Z,10.20
2017-11-21T15:50:25.934Z,10.07
2017-11-21T15:52:54.131Z,9.70
2017-11-21T15:55:21.570Z,9.43
2017-11-21T15:57:49.009Z,9.90
2017-11-21T16:00:17.222Z,9.67
2017-11-21T16:02:44.649Z,9.07
2017-11-21T16:05:12.105Z,9.87
2017-11-21T16:07:39.535Z,10.17
2017-11-21T16:10:06.961Z,8.77
2017-11-21T16:12:34.402Z,11.10
2017-11-21T16:15:01.833Z,9.40
2017-11-21T16:17:29.305Z,10.77
2017-11-21T16:19:57.637Z,9.90
2017-11-21T16:22:25.066Z,9.60
2017-11-21T16:24:52.507Z,10.57
2017-11-21T16:27:19.945Z,9.57
2017-11-21T16:29:47.437Z,10.10
2017-11-21T16:32:14.858Z,10.00
2017-11-21T16:34:42.293Z,11.03
2017-11-21T16:37:09.748Z,10.00
2017-11-21T16:39:38.083Z,11.10
2017-11-21T16:42:05.531Z,11.50
2017-11-21T16:44:32.961Z,10.33
2017-11-21T16:47:00.474Z,10.43
2017-11-21T16:49:27.909Z,10.30
2017-11-21T16:51:55.345Z,10.07
2017-11-21T16:54:23.571Z,10.37
2017-11-21T16:56:51.022Z,8.90
2017-11-21T16:59:18.469Z,9.93
2017-11-21T17:01:45.901Z,8.50
2017-11-21T17:04:13.369Z,8.77
2017-11-21T17:06:40.852Z,9.00
2017-11-21T17:09:08.312Z,11.60
2017-11-21T17:11:35.788Z,9.55
2017-11-21T17:14:03.222Z,9.17
2017-11-21T17:16:30.641Z,10.60
2017-11-21T17:18:58.091Z,10.17
2017-11-21T17:21:25.521Z,8.70
2017-11-21T17:23:52.950Z,9.90
2017-11-21T17:26:20.396Z,8.53
2017-11-21T17:28:48.589Z,9.07
2017-11-21T17:31:16.052Z,9.20
2017-11-21T17:33:43.477Z,8.93
2017-11-21T17:36:10.913Z,7.90
2017-11-21T17:38:38.334Z,8.33
2017-11-21T17:41:05.791Z,9.03
2017-11-21T17:43:33.209Z,9.00
2017-11-21T17:46:03.562Z,9.50
2017-11-21T17:48:30.990Z,10.17
2017-11-21T17:50:58.463Z,8.97
2017-11-21T17:53:25.887Z,9.17
2017-11-21T17:55:53.325Z,8.03
2017-11-21T17:58:20.761Z,10.53
2017-11-21T18:00:48.208Z,8.93
2017-11-21T18:03:15.655Z,9.00
2017-11-21T18:05:43.101Z,8.50
2017-11-21T18:08:10.538Z,8.43
2017-11-21T18:10:37.995Z,9.83
2017-11-21T18:13:05.438Z,10.40
2017-11-21T18:15:33.640Z,10.40
2017-11-21T18:18:01.070Z,8.17
2017-11-21T18:20:28.486Z,8.77
2017-11-21T18:22:55.945Z,8.43
2017-11-21T18:25:23.406Z,8.23
2017-11-21T18:27:50.823Z,8.30
2017-11-21T18:30:18.275Z,8.70
2017-11-21T18:32:57.396Z,8.53
2017-11-21T18:35:24.834Z,7.80
2017-11-21T18:37:53.028Z,8.60
2017-11-21T18:40:20.458Z,8.30
2017-11-21T18:42:47.889Z,11.40
2017-11-21T18:45:15.334Z,12.03
2017-11-21T18:47:42.766Z,10.13
2017-11-21T18:50:22.046Z,9.60
2017-11-21T18:52:49.486Z,7.93
2017-11-21T18:55:16.953Z,9.13
2017-11-21T18:57:44.386Z,8.87
2017-11-21T19:00:11.933Z,8.30
2017-11-21T19:02:39.370Z,9.00
2017-11-21T19:05:07.967Z,7.60
2017-11-21T19:07:35.384Z,8.77
2017-11-21T19:10:02.819Z,9.20
2017-11-21T19:12:30.257Z,7.83
2017-11-21T19:14:57.693Z,7.07
2017-11-21T19:17:25.138Z,7.50
2017-11-21T19:19:52.596Z,7.83
2017-11-21T19:22:20.021Z,7.53
2017-11-21T19:24:48.228Z,5.97
2017-11-21T19:27:15.661Z,5.87
2017-11-21T19:29:43.091Z,6.83
2017-11-21T19:32:10.547Z,6.53
2017-11-21T19:34:37.973Z,5.77
2017-11-21T19:37:05.405Z,7.00
2017-11-21T19:39:32.877Z,6.20
2017-11-21T19:42:00.290Z,6.33
2017-11-21T19:44:27.733Z,5.97
2017-11-21T19:46:55.936Z,6.33
2017-11-21T19:49:24.133Z,6.00
2017-11-21T19:51:51.560Z,7.13
2017-11-21T19:54:19.002Z,6.70
2017-11-21T19:56:47.137Z,6.33
2017-11-21T19:59:14.569Z,6.83
2017-11-21T20:01:41.993Z,7.03
2017-11-21T20:04:09.436Z,7.27
2017-11-21T20:06:36.859Z,6.17
2017-11-21T20:09:05.199Z,6.57
2017-11-21T20:11:32.628Z,5.93
2017-11-21T20:14:00.834Z,5.23
2017-11-21T20:16:28.256Z,5.80
2017-11-21T20:18:55.693Z,8.40
2017-11-21T20:21:23.138Z,5.83
2017-11-21T20:23:50.579Z,12.47
2017-11-21T20:26:18.017Z,8.13
2017-11-21T20:28:45.454Z,14.63
2017-11-21T20:31:12.872Z,7.57
2017-11-21T20:33:40.305Z,8.10
2017-11-21T20:36:07.731Z,6.50
2017-11-21T20:38:35.194Z,7.70
2017-11-21T20:41:02.610Z,7.60
2017-11-21T20:43:30.818Z,7.90
2017-11-21T20:45:58.246Z,8.10
2017-11-21T20:48:25.678Z,14.20
2017-11-21T20:50:53.123Z,9.70
2017-11-21T20:53:20.549Z,13.33
2017-11-21T20:55:48.005Z,7.53
2017-11-21T20:58:15.435Z,7.10
2017-11-21T21:00:43.642Z,16.27
2017-11-21T21:03:11.084Z,15.10
2017-11-21T21:05:38.739Z,6.63
2017-11-21T21:08:06.153Z,7.20
2017-11-21T21:10:33.589Z,7.97
2017-11-21T21:13:01.011Z,6.57
2017-11-21T21:15:28.453Z,8.37
2017-11-21T21:17:55.890Z,6.90
2017-11-21T21:20:24.114Z,8.30
2017-11-21T21:22:52.441Z,6.50
2017-11-21T21:25:19.874Z,5.97
2017-11-21T21:27:47.317Z,7.07
2017-11-21T21:30:14.760Z,9.73
2017-11-21T21:32:42.205Z,5.40
2017-11-21T21:35:09.639Z,6.00
2017-11-21T21:37:37.068Z,6.93
2017-11-21T21:40:04.502Z,5.83
2017-11-21T21:42:32.486Z,5.20
2017-11-21T21:44:59.907Z,5.80
2017-11-21T21:47:27.350Z,6.00
2017-11-21T21:49:55.066Z,6.00
2017-11-21T21:52:23.270Z,5.47
2017-11-21T21:54:50.712Z,4.53
2017-11-21T21:57:18.199Z,5.57
2017-11-21T21:59:45.626Z,9.00
2017-11-21T22:02:13.058Z,9.20
2017-11-21T22:04:41.485Z,5.80
2017-11-21T22:07:08.897Z,6.17
2017-11-21T22:09:37.107Z,6.57
2017-11-21T22:12:04.554Z,7.20
2017-11-21T22:14:32.009Z,5.60
2017-11-21T22:16:59.443Z,4.97
2017-11-21T22:19:26.873Z,4.77
2017-11-21T22:21:54.331Z,6.00
2017-11-21T22:24:22.922Z,4.70
2017-11-21T22:26:51.148Z,5.90
2017-11-21T22:29:18.573Z,5.17
2017-11-21T22:31:46.015Z,4.50
2017-11-21T22:34:14.216Z,4.77
2017-11-21T22:36:41.666Z,5.63
2017-11-21T22:39:09.119Z,4.57
2017-11-21T22:41:36.565Z,4.53
2017-11-21T22:44:04.754Z,4.90
2017-11-21T22:46:32.203Z,5.80
2017-11-21T22:48:59.633Z,5.13
2017-11-21T22:51:27.103Z,5.27
2017-11-21T22:53:54.530Z,4.70
2017-11-21T22:56:21.971Z,4.77
2017-11-21T22:58:49.410Z,6.37
2017-11-21T23:01:16.845Z,5.37
2017-11-21T23:03:44.286Z,4.47
2017-11-21T23:06:12.703Z,4.40
2017-11-21T23:08:40.335Z,4.90
2017-11-21T23:11:07.758Z,5.20
2017-11-21T23:13:35.209Z,5.50
2017-11-21T23:16:02.654Z,5.20
2017-11-21T23:18:30.103Z,4.93
2017-11-21T23:20:57.537Z,5.63
2017-11-21T23:23:24.978Z,5.10
2017-11-21T23:25:52.430Z,4.97
2017-11-21T23:28:19.878Z,5.30
2017-11-21T23:30:47.312Z,4.53
2017-11-21T23:33:15.538Z,5.67
2017-11-21T23:35:42.965Z,6.50
2017-11-21T23:38:10.401Z,7.17
2017-11-21T23:40:37.842Z,6.80
2017-11-21T23:43:05.279Z,8.20
2017-11-21T23:45:32.713Z,8.83
2017-11-21T23:48:00.155Z,9.07
2017-11-21T23:50:27.607Z,7.97
2017-11-21T23:52:55.031Z,7.20
2017-11-21T23:55:22.478Z,7.67
2017-11-21T23:57:49.910Z,8.40
